Time;durP1;ratioP1;P1;durP2;ratioP2;P2;SDS_P1;SDS_P2;PMS_P1;PMS_P2;Temp;Humidity;BMP_temperature;BMP_pressure;BME280_temperature;BME280_humidity;BME280_pressure;Samples;Min_cycle;Max_cycle;Signal;HPM_P1;HPM_P2
2022/05/28 00:02:13;;;;;;;11.20;4.30;;;27.50;99.90;;;;;;1867009;75;21213;-81
2022/05/28 00:04:46;;;;;;;10.68;5.22;;;27.60;99.90;;;;;;1861425;75;21175;-82
2022/05/28 00:07:16;;;;;;;9.50;4.80;;;27.50;99.90;;;;;;1856297;75;21207;-80
2022/05/28 00:09:47;;;;;;;15.60;5.40;;;27.70;99.90;;;;;;1860105;75;21578;-79
2022/05/28 00:12:22;;;;;;;14.75;5.70;;;27.50;99.90;;;;;;1826382;77;21148;-81
2022/05/28 00:14:53;;;;;;;9.73;5.00;;;27.60;99.90;;;;;;1835473;77;21136;-83
2022/05/28 00:17:24;;;;;;;12.60;5.35;;;27.70;99.90;;;;;;1834087;78;21139;-78
2022/05/28 00:19:55;;;;;;;14.30;5.62;;;27.70;99.90;;;;;;1833370;78;21194;-77
2022/05/28 00:22:27;;;;;;;14.53;5.25;;;27.60;99.90;;;;;;1826428;78;21628;-77
2022/05/28 00:24:58;;;;;;;10.00;4.95;;;27.60;99.90;;;;;;1811202;77;21201;-76
2022/05/28 00:27:29;;;;;;;11.95;5.90;;;27.70;99.90;;;;;;1801743;78;21318;-78
2022/05/28 00:29:59;;;;;;;10.85;5.35;;;27.60;99.90;;;;;;1823467;77;21154;-78
2022/05/28 00:32:30;;;;;;;14.33;6.20;;;27.80;99.90;;;;;;1820890;77;21682;-75
2022/05/28 00:35:02;;;;;;;17.32;7.75;;;27.70;99.90;;;;;;1821099;77;21186;-76
2022/05/28 00:37:33;;;;;;;12.53;5.30;;;27.90;99.90;;;;;;1827358;77;21178;-76
2022/05/28 00:40:06;;;;;;;17.65;9.60;;;27.80;99.90;;;;;;1824151;77;22028;-77
2022/05/28 00:42:37;;;;;;;8.75;5.10;;;27.70;99.90;;;;;;1787295;79;21629;-76
2022/05/28 00:45:09;;;;;;;15.32;5.42;;;28.00;99.90;;;;;;1812468;77;21127;-76
2022/05/28 00:47:42;;;;;;;9.65;5.00;;;28.00;99.90;;;;;;1822104;77;21126;-75
2022/05/28 00:50:15;;;;;;;12.25;5.75;;;28.00;99.90;;;;;;1815098;77;21147;-77
2022/05/28 00:52:47;;;;;;;11.12;6.03;;;27.90;99.90;;;;;;1848472;76;21224;-76
2022/05/28 00:55:19;;;;;;;13.13;5.75;;;27.90;99.90;;;;;;1848259;75;21398;-75
2022/05/28 00:57:50;;;;;;;14.20;5.95;;;27.90;99.60;;;;;;1863688;75;21144;-77
2022/05/28 01:00:23;;;;;;;20.25;5.92;;;27.90;99.70;;;;;;1852056;76;21156;-77
2022/05/28 01:02:57;;;;;;;15.13;6.00;;;28.00;99.70;;;;;;1861321;75;21689;-77
2022/05/28 01:05:30;;;;;;;13.75;6.00;;;28.00;99.60;;;;;;1875848;75;21148;-79
2022/05/28 01:08:08;;;;;;;15.35;5.45;;;28.20;99.70;;;;;;1780526;79;21092;-78
2022/05/28 01:10:41;;;;;;;17.25;8.33;;;28.20;99.70;;;;;;1832531;77;21131;-75
2022/05/28 01:13:15;;;;;;;13.98;5.33;;;28.10;99.60;;;;;;1849965;76;21263;-75
2022/05/28 01:15:48;;;;;;;11.08;5.55;;;28.30;99.60;;;;;;1782137;79;21616;-76
2022/05/28 01:18:22;;;;;;;11.15;5.35;;;28.30;99.40;;;;;;1837538;77;21202;-77
2022/05/28 01:20:56;;;;;;;13.18;6.22;;;28.30;99.10;;;;;;1791488;78;21147;-79
2022/05/28 01:23:30;;;;;;;17.73;5.33;;;28.30;99.00;;;;;;1799589;79;21100;-80
2022/05/28 01:26:03;;;;;;;11.45;5.40;;;28.30;98.70;;;;;;1808385;79;21170;-77
2022/05/28 01:28:37;;;;;;;12.82;7.45;;;28.50;98.70;;;;;;1816369;79;21162;-78
2022/05/28 01:31:09;;;;;;;12.28;5.90;;;28.30;98.70;;;;;;1817569;77;21177;-80
2022/05/28 01:33:42;;;;;;;12.93;6.17;;;28.40;98.70;;;;;;1848887;76;21198;-80
2022/05/28 01:36:15;;;;;;;14.60;6.45;;;28.50;98.40;;;;;;1839563;76;21159;-80
2022/05/28 01:38:49;;;;;;;10.90;5.85;;;28.70;98.40;;;;;;1851361;76;21684;-80
2022/05/28 01:41:20;;;;;;;11.28;5.12;;;28.60;98.30;;;;;;1852742;76;21221;-81
2022/05/28 01:43:59;;;;;;;13.22;5.72;;;28.80;98.20;;;;;;1811371;78;21132;-80
2022/05/28 01:46:32;;;;;;;12.95;6.25;;;28.80;98.00;;;;;;1781313;79;21217;-79
2022/05/28 01:49:04;;;;;;;13.20;6.08;;;29.00;97.90;;;;;;1796972;79;21101;-76
2022/05/28 01:51:37;;;;;;;16.55;6.00;;;28.70;98.10;;;;;;1799160;79;21602;-79
2022/05/28 01:54:11;;;;;;;12.25;5.42;;;28.80;97.90;;;;;;1811652;77;21181;-80
2022/05/28 01:56:45;;;;;;;15.48;5.95;;;28.90;97.80;;;;;;1806453;78;21178;-79
2022/05/28 01:59:21;;;;;;;13.90;6.10;;;29.00;97.70;;;;;;1822265;78;21727;-79
2022/05/28 02:01:53;;;;;;;14.70;5.37;;;29.20;97.40;;;;;;1852651;77;21694;-78
2022/05/28 02:04:25;;;;;;;17.30;6.37;;;29.10;97.40;;;;;;1860237;77;21537;-78
2022/05/28 02:06:56;;;;;;;15.28;5.78;;;29.20;97.20;;;;;;1809153;79;21233;-79
2022/05/28 02:09:29;;;;;;;15.65;5.87;;;29.30;96.80;;;;;;1810310;79;21729;-78
2022/05/28 02:12:03;;;;;;;15.40;5.40;;;29.40;97.00;;;;;;1809091;79;21736;-77
2022/05/28 02:14:40;;;;;;;14.10;5.58;;;29.60;96.70;;;;;;1813650;78;21155;-78
2022/05/28 02:17:11;;;;;;;15.93;6.40;;;29.60;96.40;;;;;;1797402;79;21666;-77
2022/05/28 02:19:47;;;;;;;15.15;5.85;;;29.80;96.50;;;;;;1810268;79;21233;-77
2022/05/28 02:22:21;;;;;;;14.45;5.78;;;29.80;96.40;;;;;;1809214;79;21209;-78
2022/05/28 02:24:56;;;;;;;17.32;6.08;;;30.30;95.30;;;;;;1809847;79;21127;-77
2022/05/28 02:27:31;;;;;;;14.80;6.03;;;30.10;95.20;;;;;;1809739;78;21151;-78
2022/05/28 02:30:06;;;;;;;16.85;5.12;;;30.20;94.80;;;;;;1797349;79;21198;-77
2022/05/28 02:32:37;;;;;;;14.40;5.22;;;30.30;94.80;;;;;;1810036;79;21127;-76
2022/05/28 02:35:13;;;;;;;;;;;30.40;94.20;;;;;;1813106;79;21718;-77
2022/05/28 02:37:44;;;;;;;13.90;6.15;;;30.50;94.00;;;;;;1810987;79;20195;-77
2022/05/28 02:40:15;;;;;;;14.28;5.25;;;30.60;94.40;;;;;;1818350;79;21581;-77
2022/05/28 02:42:46;;;;;;;15.28;5.40;;;30.70;94.10;;;;;;1844471;78;21112;-77
2022/05/28 02:45:17;;;;;;;19.15;5.10;;;30.80;93.30;;;;;;1844555;77;22019;-79
2022/05/28 02:47:48;;;;;;;10.90;4.72;;;31.20;92.80;;;;;;1845411;78;21164;-78
2022/05/28 02:50:19;;;;;;;15.58;6.00;;;31.20;92.20;;;;;;1845405;77;21521;-77
2022/05/28 02:52:51;;;;;;;17.10;5.05;;;31.50;92.00;;;;;;1845187;78;21671;-78
2022/05/28 02:55:22;;;;;;;12.35;5.03;;;31.30;91.90;;;;;;1841961;78;21608;-77
2022/05/28 02:57:53;;;;;;;14.20;4.97;;;31.40;90.80;;;;;;1840019;78;21156;-78
2022/05/28 03:00:24;;;;;;;27.67;6.10;;;31.60;91.20;;;;;;1855135;76;21226;-78
2022/05/28 03:02:57;;;;;;;15.00;5.53;;;31.60;91.50;;;;;;1844923;75;21201;-84
2022/05/28 03:05:28;;;;;;;15.93;5.67;;;31.60;91.80;;;;;;1848198;77;21084;-85
2022/05/28 03:07:59;;;;;;;10.58;5.10;;;31.70;91.70;;;;;;1860693;75;21191;-84
2022/05/28 03:10:30;;;;;;;18.48;5.33;;;31.90;91.90;;;;;;1860402;75;21197;-84
2022/05/28 03:13:01;;;;;;;14.63;5.30;;;31.80;90.90;;;;;;1859474;77;21135;-83
2022/05/28 03:15:34;;;;;;;16.97;6.10;;;31.80;90.90;;;;;;1852519;75;21614;-84
2022/05/28 03:18:06;;;;;;;13.05;5.37;;;31.80;91.10;;;;;;1860447;75;21161;-83
2022/05/28 03:20:38;;;;;;;16.45;6.40;;;32.10;91.20;;;;;;1860208;75;21210;-84
2022/05/28 03:23:09;;;;;;;16.37;5.72;;;31.90;90.80;;;;;;1859874;75;21214;-85
2022/05/28 03:25:40;;;;;;;13.75;5.97;;;31.90;90.80;;;;;;1861629;75;21152;-83
2022/05/28 03:28:11;;;;;;;13.60;5.83;;;32.10;89.50;;;;;;1861282;75;21122;-83
2022/05/28 03:30:42;;;;;;;16.20;6.45;;;32.00;90.80;;;;;;1860987;75;21218;-84
2022/05/28 03:33:13;;;;;;;15.63;5.05;;;32.20;90.90;;;;;;1776435;79;21805;-85
2022/05/28 03:35:44;;;;;;;16.62;6.62;;;32.30;90.40;;;;;;1867361;75;21134;-84
2022/05/28 03:38:15;;;;;;;14.07;5.47;;;32.00;90.60;;;;;;1859344;77;21580;-84
2022/05/28 03:40:51;;;;;;;16.40;6.15;;;32.10;90.90;;;;;;1858753;75;21605;-86
2022/05/28 03:43:27;;;;;;;15.05;6.33;;;32.20;90.20;;;;;;1862007;75;21139;-86
2022/05/28 03:45:57;;;;;;;13.30;6.42;;;32.30;89.70;;;;;;1861881;75;21112;-85
2022/05/28 03:48:33;;;;;;;17.82;5.85;;;32.40;90.10;;;;;;1861071;75;21096;-84
2022/05/28 03:51:05;;;;;;;17.32;5.40;;;32.50;88.10;;;;;;1862883;75;21208;-84
2022/05/28 03:53:39;;;;;;;14.95;5.83;;;32.50;88.90;;;;;;1828429;77;21105;-85
2022/05/28 03:56:10;;;;;;;16.87;6.25;;;32.60;89.10;;;;;;1783108;79;21167;-84
2022/05/28 03:58:42;;;;;;;17.10;6.35;;;32.80;88.30;;;;;;1835255;77;21198;-83
2022/05/28 04:01:14;;;;;;;16.55;5.70;;;32.60;87.30;;;;;;1860239;77;21175;-84
2022/05/28 04:03:45;;;;;;;17.42;6.05;;;32.90;87.10;;;;;;1861859;75;21205;-85
2022/05/28 04:06:16;;;;;;;16.02;6.85;;;33.00;87.20;;;;;;1756208;79;21197;-84
2022/05/28 04:08:47;;;;;;;16.82;5.92;;;32.60;87.60;;;;;;1865717;75;21059;-84
2022/05/28 04:11:19;;;;;;;17.32;6.35;;;32.80;85.90;;;;;;1873600;75;21189;-83
2022/05/28 04:13:50;;;;;;;17.25;6.28;;;32.70;85.40;;;;;;1858238;75;21153;-83
2022/05/28 04:16:22;;;;;;;12.35;5.85;;;32.70;85.20;;;;;;1862767;75;21158;-84
2022/05/28 04:18:53;;;;;;;14.50;5.95;;;33.10;86.10;;;;;;1848979;75;21124;-81
2022/05/28 04:21:24;;;;;;;13.18;5.50;;;32.90;86.00;;;;;;1868194;75;21160;-84
2022/05/28 04:23:55;;;;;;;13.43;5.78;;;33.20;86.40;;;;;;1855860;75;21138;-84
2022/05/28 04:26:26;;;;;;;14.60;5.83;;;33.20;86.40;;;;;;1856518;75;21241;-86
2022/05/28 04:28:57;;;;;;;16.82;6.75;;;32.90;86.20;;;;;;1863024;75;21138;-85
2022/05/28 04:31:28;;;;;;;15.50;6.35;;;33.00;86.00;;;;;;1874472;75;21151;-85
2022/05/28 04:33:59;;;;;;;13.95;5.83;;;33.10;87.10;;;;;;1865808;75;21112;-84
2022/05/28 04:36:30;;;;;;;14.95;5.80;;;32.90;85.50;;;;;;1865516;75;21203;-85
2022/05/28 04:39:00;;;;;;;23.62;6.12;;;32.90;85.20;;;;;;1859769;75;21104;-85
2022/05/28 04:41:31;;;;;;;15.83;5.97;;;32.90;84.00;;;;;;1862899;75;21261;-85
2022/05/28 04:44:02;;;;;;;13.25;6.00;;;32.80;84.50;;;;;;1867942;75;21160;-84
2022/05/28 04:46:33;;;;;;;13.30;5.42;;;32.80;84.90;;;;;;1869227;75;21166;-84
2022/05/28 04:49:05;;;;;;;17.40;5.83;;;32.70;85.20;;;;;;1864104;75;21242;-83
2022/05/28 04:51:38;;;;;;;14.38;5.75;;;32.50;86.90;;;;;;1867152;75;21825;-84
2022/05/28 04:54:09;;;;;;;13.10;5.85;;;32.60;86.40;;;;;;1865537;75;21120;-83
2022/05/28 04:56:40;;;;;;;14.18;5.47;;;32.80;84.30;;;;;;1864576;75;21122;-84
2022/05/28 04:59:11;;;;;;;21.65;7.37;;;32.90;84.40;;;;;;1863542;75;21144;-86
2022/05/28 05:01:41;;;;;;;15.05;5.58;;;33.00;85.90;;;;;;1844823;75;21076;-85
2022/05/28 05:04:12;;;;;;;18.30;6.42;;;33.40;83.00;;;;;;1860956;75;21171;-84
2022/05/28 05:06:44;;;;;;;16.02;6.53;;;33.10;83.80;;;;;;1865035;74;21101;-84
2022/05/28 05:09:14;;;;;;;15.98;6.53;;;33.30;84.40;;;;;;1866146;74;21107;-83
2022/05/28 05:11:45;;;;;;;16.70;5.55;;;33.50;83.90;;;;;;1868989;74;21118;-83
2022/05/28 05:14:16;;;;;;;18.57;6.22;;;33.50;82.90;;;;;;1784678;77;21179;-84
2022/05/28 05:16:47;;;;;;;12.85;5.92;;;33.60;82.30;;;;;;1812083;76;21152;-81
2022/05/28 05:19:19;;;;;;;18.17;5.62;;;33.80;82.00;;;;;;1783663;78;21211;-85
2022/05/28 05:21:49;;;;;;;13.13;5.22;;;33.80;80.30;;;;;;1808269;77;21225;-84
2022/05/28 05:24:22;;;;;;;17.95;6.30;;;34.00;80.00;;;;;;1865320;74;21301;-84
2022/05/28 05:26:54;;;;;;;15.75;5.70;;;33.80;82.70;;;;;;1871467;75;21575;-85
2022/05/28 05:29:26;;;;;;;16.57;5.95;;;33.80;80.20;;;;;;1849358;75;21668;-85
2022/05/28 05:31:58;;;;;;;12.53;5.92;;;33.80;80.10;;;;;;1862659;75;21162;-84
2022/05/28 05:34:29;;;;;;;16.93;6.53;;;33.80;81.10;;;;;;1860604;75;21106;-84
2022/05/28 05:37:00;;;;;;;16.85;6.37;;;33.90;79.90;;;;;;1861630;75;21124;-85
2022/05/28 05:39:31;;;;;;;20.95;6.70;;;33.70;80.30;;;;;;1869793;75;21235;-86
2022/05/28 05:42:04;;;;;;;12.15;6.08;;;33.50;81.10;;;;;;1861173;76;21136;-85
2022/05/28 05:44:35;;;;;;;15.98;6.65;;;33.30;81.30;;;;;;1863463;75;21248;-86
2022/05/28 05:47:07;;;;;;;15.35;6.70;;;33.20;81.30;;;;;;1861075;75;21548;-87
2022/05/28 05:49:38;;;;;;;13.50;6.60;;;33.40;81.80;;;;;;1865493;75;21065;-84
2022/05/28 05:52:09;;;;;;;15.38;6.65;;;33.20;82.90;;;;;;1862174;75;21206;-84
2022/05/28 05:54:42;;;;;;;17.00;6.97;;;33.50;82.80;;;;;;1865077;75;21169;-84
2022/05/28 05:57:13;;;;;;;15.18;6.87;;;33.70;80.20;;;;;;1863780;75;21148;-83
2022/05/28 05:59:44;;;;;;;20.00;6.85;;;33.70;80.80;;;;;;1867240;75;21160;-81
2022/05/28 06:02:16;;;;;;;16.77;6.53;;;33.80;79.10;;;;;;1866135;75;21198;-85
2022/05/28 06:04:47;;;;;;;18.12;6.90;;;33.70;79.30;;;;;;1868341;75;21167;-86
2022/05/28 06:07:18;;;;;;;10.85;5.87;;;33.80;78.90;;;;;;1866952;75;21658;-85
2022/05/28 06:09:49;;;;;;;18.73;6.60;;;33.80;79.50;;;;;;1869730;75;21236;-85
2022/05/28 06:12:20;;;;;;;17.17;5.75;;;34.00;77.60;;;;;;1874133;75;21144;-85
2022/05/28 06:14:52;;;;;;;15.72;6.05;;;33.90;77.10;;;;;;1784277;79;21178;-86
2022/05/28 06:17:22;;;;;;;16.57;6.22;;;33.90;77.60;;;;;;1840992;77;21228;-85
2022/05/28 06:19:59;;;;;;;17.07;6.05;;;33.80;77.00;;;;;;1848608;77;21148;-86
2022/05/28 06:22:30;;;;;;;15.98;7.00;;;33.90;77.90;;;;;;1848821;77;21160;-84
2022/05/28 06:25:02;;;;;;;17.62;6.30;;;33.90;78.40;;;;;;1841910;77;21202;-85
2022/05/28 06:27:34;;;;;;;17.35;6.62;;;34.10;79.00;;;;;;1838171;77;21198;-84
2022/05/28 06:30:06;;;;;;;21.82;7.47;;;33.90;78.60;;;;;;1818685;77;21543;-84
2022/05/28 06:32:36;;;;;;;13.93;6.35;;;33.90;79.50;;;;;;1827235;77;21114;-85
2022/05/28 06:35:08;;;;;;;16.23;6.40;;;34.00;80.00;;;;;;1820364;77;21107;-85
2022/05/28 06:37:39;;;;;;;16.73;7.12;;;33.80;80.50;;;;;;1821460;77;21314;-84
2022/05/28 06:40:11;;;;;;;15.83;6.50;;;33.80;80.60;;;;;;1819792;77;21147;-85
2022/05/28 06:42:44;;;;;;;18.67;7.17;;;33.70;80.20;;;;;;1838012;77;21079;-84
2022/05/28 06:45:15;;;;;;;17.00;7.20;;;33.80;81.10;;;;;;1825377;77;21248;-84
2022/05/28 06:47:47;;;;;;;14.87;6.65;;;33.80;81.10;;;;;;1786467;79;21186;-85
2022/05/28 06:52:52;;;;;;;13.98;6.50;;;33.60;79.10;;;;;;1809195;77;21205;-86
2022/05/28 06:55:23;;;;;;;14.50;6.22;;;33.80;80.00;;;;;;1847317;76;21560;-85
2022/05/28 06:57:54;;;;;;;15.65;6.37;;;33.70;81.20;;;;;;1854831;76;21190;-84
2022/05/28 07:00:25;;;;;;;16.87;7.20;;;33.60;81.80;;;;;;1852827;77;21147;-85
2022/05/28 07:02:56;;;;;;;17.82;7.05;;;33.80;81.80;;;;;;1862869;75;21092;-85
2022/05/28 07:05:31;;;;;;;13.35;7.35;;;33.50;82.70;;;;;;1866772;75;21159;-84
2022/05/28 07:08:00;;;;;;;18.82;7.22;;;33.30;82.70;;;;;;1794482;79;21178;-86
2022/05/28 07:10:31;;;;;;;19.23;7.17;;;33.30;84.10;;;;;;1851873;77;21582;-85
2022/05/28 07:13:02;;;;;;;18.23;7.33;;;33.40;84.10;;;;;;1829510;77;21099;-86
2022/05/28 07:15:33;;;;;;;19.62;7.37;;;33.20;83.60;;;;;;1821010;78;21175;-87
2022/05/28 07:18:05;;;;;;;19.20;7.03;;;33.30;82.90;;;;;;1818700;78;21217;-85
2022/05/28 07:20:36;;;;;;;14.30;6.55;;;33.50;82.70;;;;;;1823007;77;21265;-84
2022/05/28 07:23:11;;;;;;;13.62;6.85;;;33.50;82.00;;;;;;1862568;76;21147;-86
2022/05/28 07:25:44;;;;;;;18.40;6.53;;;33.50;81.30;;;;;;1854969;76;21175;-85
2022/05/28 07:28:25;;;;;;;17.55;7.15;;;33.60;80.80;;;;;;1865977;75;22490;-85
2022/05/28 07:30:48;;;;;;;20.00;7.03;;;33.70;80.10;;;;;;1859966;75;21124;-85
2022/05/28 07:33:20;;;;;;;15.45;7.45;;;33.60;80.50;;;;;;1854789;76;21136;-85
2022/05/28 07:35:51;;;;;;;21.25;6.95;;;33.60;81.20;;;;;;1776471;79;21263;-85
2022/05/28 07:38:22;;;;;;;15.43;7.75;;;33.70;80.40;;;;;;1834180;77;21159;-85
2022/05/28 07:40:55;;;;;;;17.30;7.12;;;33.90;80.30;;;;;;1826740;78;21177;-86
2022/05/28 07:43:26;;;;;;;13.60;6.78;;;34.00;80.40;;;;;;1802112;78;21130;-85
2022/05/28 07:45:57;;;;;;;14.23;7.47;;;33.90;79.10;;;;;;1818665;77;21139;-85
2022/05/28 07:48:30;;;;;;;16.67;7.87;;;34.00;78.20;;;;;;1811579;78;21174;-86
2022/05/28 07:51:02;;;;;;;20.08;7.55;;;34.00;78.30;;;;;;1814560;78;21559;-86
2022/05/28 07:53:35;;;;;;;20.70;7.70;;;33.90;79.30;;;;;;1823030;78;21162;-86
2022/05/28 07:56:07;;;;;;;17.07;7.45;;;33.80;78.00;;;;;;1790829;79;21247;-85
2022/05/28 07:58:39;;;;;;;14.15;7.28;;;33.80;77.40;;;;;;1846699;76;21144;-85
2022/05/28 08:01:13;;;;;;;15.03;6.35;;;33.70;77.20;;;;;;1834311;77;21101;-87
2022/05/28 08:03:48;;;;;;;19.05;6.92;;;33.70;77.30;;;;;;1836122;77;21171;-87
2022/05/28 08:06:22;;;;;;;18.62;7.03;;;33.60;77.40;;;;;;1786314;79;21194;-88
2022/05/28 08:08:54;;;;;;;15.83;7.25;;;33.50;79.10;;;;;;1850257;76;21901;-88
2022/05/28 08:11:30;;;;;;;19.80;8.25;;;33.50;77.80;;;;;;1854174;76;21210;-87
2022/05/28 08:14:06;;;;;;;19.82;6.97;;;33.60;78.80;;;;;;1859993;75;21138;-87
2022/05/28 08:16:35;;;;;;;16.57;7.28;;;33.60;79.30;;;;;;1855644;76;21088;-86
2022/05/28 08:19:09;;;;;;;22.17;7.45;;;33.60;80.20;;;;;;1857666;76;21222;-87
2022/05/28 08:24:13;;;;;;;16.82;7.50;;;33.60;77.90;;;;;;1853556;76;21209;-86
2022/05/28 08:26:47;;;;;;;14.83;7.37;;;33.80;77.10;;;;;;1855033;76;21154;-86
2022/05/28 08:29:22;;;;;;;18.23;7.33;;;33.70;78.00;;;;;;1855088;76;21124;-86
2022/05/28 08:31:50;;;;;;;15.60;7.42;;;33.60;79.90;;;;;;1868952;76;21178;-85
2022/05/28 08:34:21;;;;;;;21.12;7.45;;;33.70;80.40;;;;;;1856787;76;21167;-84
2022/05/28 08:36:53;;;;;;;18.70;7.70;;;33.80;80.70;;;;;;1856556;76;21077;-86
2022/05/28 08:39:23;;;;;;;13.65;7.28;;;33.80;80.50;;;;;;1867293;76;21112;-85
2022/05/28 08:41:57;;;;;;;20.08;7.65;;;33.80;80.40;;;;;;1856198;76;21167;-87
2022/05/28 08:44:30;;;;;;;19.98;8.05;;;33.70;79.50;;;;;;1855746;76;21088;-85
2022/05/28 08:47:04;;;;;;;15.63;7.33;;;33.70;79.90;;;;;;1854980;76;21152;-86
2022/05/28 08:49:37;;;;;;;21.68;7.08;;;33.90;80.10;;;;;;1842414;76;21155;-86
2022/05/28 08:52:10;;;;;;;18.37;7.60;;;33.90;80.20;;;;;;1855135;76;21093;-86
2022/05/28 08:54:56;;;;;;;21.30;7.83;;;33.70;79.80;;;;;;1842958;76;21149;-86
2022/05/28 08:57:18;;;;;;;15.63;7.25;;;33.60;81.50;;;;;;1853321;75;21610;-85
2022/05/28 08:59:51;;;;;;;21.82;8.70;;;33.70;80.40;;;;;;1855690;77;21213;-86
2022/05/28 09:02:28;;;;;;;24.05;9.50;;;33.60;81.30;;;;;;1855192;76;21190;-86
2022/05/28 09:05:01;;;;;;;19.80;8.18;;;33.70;81.00;;;;;;1857584;77;21168;-86
2022/05/28 09:07:35;;;;;;;19.90;8.25;;;33.70;80.00;;;;;;1875473;75;21637;-86
2022/05/28 09:10:06;;;;;;;17.80;6.72;;;33.70;80.10;;;;;;1785600;79;21235;-86
2022/05/28 09:12:40;;;;;;;14.45;7.17;;;33.50;79.00;;;;;;1867582;75;21175;-86
2022/05/28 09:15:12;;;;;;;16.12;8.03;;;33.60;79.60;;;;;;1863833;75;21220;-86
2022/05/28 09:17:46;;;;;;;15.80;7.03;;;33.30;80.10;;;;;;1815254;77;21232;-86
2022/05/28 09:20:21;;;;;;;15.40;7.30;;;33.40;79.60;;;;;;1876485;75;21122;-86
2022/05/28 09:22:53;;;;;;;15.58;6.80;;;33.40;78.80;;;;;;1862547;75;21096;-85
2022/05/28 09:25:26;;;;;;;15.70;7.35;;;33.60;80.30;;;;;;1782048;79;21153;-84
2022/05/28 09:28:00;;;;;;;17.42;7.72;;;33.40;80.50;;;;;;1861088;75;21124;-85
2022/05/28 09:30:33;;;;;;;18.57;7.30;;;33.40;80.70;;;;;;1860818;75;21214;-85
2022/05/28 09:33:06;;;;;;;19.20;7.40;;;33.50;80.50;;;;;;1861958;75;21655;-85
2022/05/28 09:35:40;;;;;;;17.05;6.47;;;33.30;80.20;;;;;;1859388;75;21193;-85
2022/05/28 09:38:13;;;;;;;16.48;7.05;;;33.30;80.60;;;;;;1876066;75;21204;-85
2022/05/28 09:40:46;;;;;;;16.25;7.28;;;33.20;80.50;;;;;;1862336;75;21299;-86
2022/05/28 09:43:21;;;;;;;14.05;7.20;;;33.40;81.30;;;;;;1869765;75;21626;-85
2022/05/28 09:45:54;;;;;;;17.35;7.35;;;33.30;81.40;;;;;;1848411;75;21210;-85
2022/05/28 09:48:29;;;;;;;17.73;7.55;;;33.30;81.50;;;;;;1862398;75;21268;-87
2022/05/28 09:51:00;;;;;;;20.27;7.42;;;33.20;81.20;;;;;;1862951;75;21141;-85
2022/05/28 09:56:09;;;;;;;17.55;6.45;;;32.90;85.10;;;;;;1858884;76;21670;-85
2022/05/28 09:58:42;;;;;;;20.57;7.53;;;32.90;86.50;;;;;;1858234;75;21645;-84
2022/05/28 10:01:15;;;;;;;18.92;6.62;;;32.40;88.10;;;;;;1863212;75;21131;-84
2022/05/28 10:06:23;;;;;;;16.70;6.87;;;31.50;90.70;;;;;;1859931;75;21130;-85
2022/05/28 10:08:54;;;;;;;17.70;6.70;;;31.30;91.20;;;;;;1857445;76;21156;-86
2022/05/28 10:11:25;;;;;;;14.20;6.37;;;31.10;91.50;;;;;;1847185;76;21172;-83
2022/05/28 10:14:00;;;;;;;17.10;6.15;;;30.90;91.80;;;;;;1861500;76;21175;-86
2022/05/28 10:16:35;;;;;;;12.30;6.00;;;30.50;92.50;;;;;;1862660;76;21177;-82
2022/05/28 10:19:13;;;;;;;10.50;4.70;;;30.60;92.90;;;;;;1849348;76;21143;-85
2022/05/28 10:21:47;;;;;;;12.33;4.35;;;30.10;92.90;;;;;;1853158;76;21176;-84
2022/05/28 10:24:22;;;;;;;7.20;3.33;;;30.30;92.70;;;;;;1835844;76;21153;-85
2022/05/28 10:26:56;;;;;;;7.55;4.15;;;30.00;93.10;;;;;;1861644;75;21138;-85
2022/05/28 10:29:29;;;;;;;6.53;2.50;;;30.00;94.00;;;;;;1837299;76;21143;-87
2022/05/28 10:32:02;;;;;;;9.43;3.15;;;29.70;93.80;;;;;;1846496;76;21134;-86
2022/05/28 10:34:38;;;;;;;7.42;3.20;;;29.70;93.70;;;;;;1843236;76;21248;-85
2022/05/28 10:37:11;;;;;;;;;;;29.80;93.80;;;;;;1834768;76;21103;-84
2022/05/28 10:39:44;;;;;;;8.33;4.33;;;29.60;93.60;;;;;;1845277;76;20186;-86
2022/05/28 10:42:16;;;;;;;9.48;4.65;;;29.70;93.80;;;;;;1838395;76;21294;-86
2022/05/28 10:44:47;;;;;;;7.85;4.70;;;29.60;93.80;;;;;;1838896;77;21210;-86
2022/05/28 10:47:21;;;;;;;8.08;4.10;;;29.60;93.70;;;;;;1795721;78;21149;-87
2022/05/28 10:49:54;;;;;;;11.70;5.03;;;29.60;93.50;;;;;;1842758;76;21215;-87
2022/05/28 10:52:29;;;;;;;13.78;4.53;;;29.90;93.60;;;;;;1853334;76;21884;-85
2022/05/28 10:55:04;;;;;;;10.80;5.20;;;29.70;93.70;;;;;;1786695;78;21186;-86
2022/05/28 10:57:38;;;;;;;12.58;5.12;;;29.90;93.90;;;;;;1801852;78;21084;-86
2022/05/28 11:00:11;;;;;;;11.60;5.58;;;30.10;93.60;;;;;;1820923;77;21202;-86
2022/05/28 11:02:45;;;;;;;11.38;5.55;;;29.90;93.80;;;;;;1837110;77;21088;-86
2022/05/28 11:05:18;;;;;;;12.53;5.87;;;30.20;94.20;;;;;;1819986;77;21189;-86
2022/05/28 11:07:51;;;;;;;11.20;6.03;;;30.10;94.00;;;;;;1818693;77;21158;-84
2022/05/28 11:10:25;;;;;;;11.22;6.10;;;30.00;93.90;;;;;;1821629;77;21120;-86
2022/05/28 11:12:59;;;;;;;17.55;6.60;;;30.10;93.50;;;;;;1834682;77;21063;-85
2022/05/28 11:15:32;;;;;;;11.53;7.40;;;30.30;93.90;;;;;;1822730;77;21080;-86
2022/05/28 11:18:07;;;;;;;15.15;7.17;;;30.20;94.10;;;;;;1835946;77;21158;-84
2022/05/28 11:20:43;;;;;;;19.57;8.78;;;30.40;93.90;;;;;;1825605;77;21182;-85
2022/05/28 11:23:16;;;;;;;20.88;8.95;;;30.30;94.00;;;;;;1825337;77;21232;-84
2022/05/28 11:25:50;;;;;;;17.30;8.83;;;30.30;94.10;;;;;;1829069;77;21109;-85
2022/05/28 11:28:25;;;;;;;19.67;9.45;;;30.40;94.20;;;;;;1771935;78;21323;-85
2022/05/28 11:30:58;;;;;;;23.57;9.60;;;30.30;94.40;;;;;;1794055;78;21197;-85
2022/05/28 11:33:32;;;;;;;20.68;9.55;;;30.30;94.60;;;;;;1809412;77;21178;-84
2022/05/28 11:36:06;;;;;;;24.55;10.28;;;30.30;94.10;;;;;;1808188;78;21079;-86
2022/05/28 11:38:40;;;;;;;21.52;10.30;;;30.30;94.00;;;;;;1783192;78;21182;-86
2022/05/28 11:41:13;;;;;;;25.82;11.40;;;30.50;94.40;;;;;;1831201;78;21128;-84
2022/05/28 11:43:49;;;;;;;18.73;10.40;;;30.60;94.60;;;;;;1835511;78;21141;-85
2022/05/28 11:46:22;;;;;;;24.27;11.63;;;30.50;94.50;;;;;;1829384;77;21147;-83
2022/05/28 11:51:37;;;;;;;19.48;11.68;;;30.50;94.70;;;;;;1828566;78;21256;-85
2022/05/28 11:54:05;;;;;;;23.25;11.12;;;30.60;94.50;;;;;;1832061;78;21238;-85
2022/05/28 11:56:37;;;;;;;21.60;11.33;;;30.40;94.40;;;;;;1829303;77;21696;-85
2022/05/28 11:59:10;;;;;;;19.82;11.43;;;30.50;94.60;;;;;;1805946;78;21176;-85
2022/05/28 12:01:43;;;;;;;26.55;12.28;;;30.60;94.60;;;;;;1824873;74;21273;-86
2022/05/28 12:04:21;;;;;;;24.85;12.37;;;30.40;94.70;;;;;;1810719;76;21830;-86
2022/05/28 12:06:58;;;;;;;20.15;12.00;;;30.40;94.90;;;;;;1812189;76;21166;-83
2022/05/28 12:09:29;;;;;;;21.80;11.30;;;30.30;95.00;;;;;;1814661;77;21138;-84
2022/05/28 12:12:03;;;;;;;24.87;11.85;;;30.50;95.20;;;;;;1785241;76;21160;-84
2022/05/28 12:14:36;;;;;;;21.93;11.80;;;30.40;95.30;;;;;;1772952;80;21147;-85
2022/05/28 12:17:09;;;;;;;22.70;11.70;;;30.20;95.30;;;;;;1777732;80;21166;-84
2022/05/28 12:19:43;;;;;;;24.82;12.13;;;30.50;95.50;;;;;;1823645;77;21252;-84
2022/05/28 12:22:18;;;;;;;21.50;12.82;;;30.50;95.40;;;;;;1819641;76;21181;-84
2022/05/28 12:24:51;;;;;;;21.05;12.28;;;30.50;95.50;;;;;;1814640;77;21237;-85
2022/05/28 12:27:29;;;;;;;31.73;13.40;;;30.20;95.10;;;;;;1814969;77;21197;-86
2022/05/28 12:30:04;;;;;;;24.72;13.93;;;30.20;95.40;;;;;;1826900;77;21163;-85
2022/05/28 12:32:45;;;;;;;25.35;13.35;;;30.30;95.40;;;;;;1823774;77;21108;-86
2022/05/28 12:35:19;;;;;;;29.20;14.03;;;30.40;96.00;;;;;;1823544;77;21221;-84
2022/05/28 12:37:52;;;;;;;28.75;14.23;;;30.30;95.80;;;;;;1824787;77;21194;-86
2022/05/28 12:40:26;;;;;;;28.00;13.35;;;30.20;95.90;;;;;;1822056;77;21224;-84
2022/05/28 12:42:59;;;;;;;25.77;13.15;;;30.20;96.20;;;;;;1820807;77;21178;-85
2022/05/28 12:45:36;;;;;;;24.50;13.65;;;30.10;96.40;;;;;;1821767;77;21651;-84
2022/05/28 12:48:10;;;;;;;29.70;14.20;;;30.10;96.70;;;;;;1788331;78;21079;-84
2022/05/28 12:50:44;;;;;;;31.10;14.70;;;30.10;97.10;;;;;;1788971;78;21127;-85
2022/05/28 12:53:17;;;;;;;26.25;13.98;;;29.90;96.90;;;;;;1758419;80;21233;-85
2022/05/28 12:55:50;;;;;;;23.87;13.20;;;29.90;97.10;;;;;;1784492;78;21200;-85
2022/05/28 12:58:29;;;;;;;28.52;13.78;;;29.90;96.90;;;;;;1795666;78;21172;-84
2022/05/28 13:01:04;;;;;;;23.40;12.50;;;29.90;97.10;;;;;;1755821;80;21241;-85
2022/05/28 13:03:38;;;;;;;23.80;10.88;;;29.80;97.10;;;;;;1760369;79;21182;-84
2022/05/28 13:06:11;;;;;;;19.70;10.38;;;29.70;96.70;;;;;;1762414;80;21163;-85
2022/05/28 13:08:46;;;;;;;19.48;10.55;;;29.80;96.50;;;;;;1779710;79;21160;-85
2022/05/28 13:11:20;;;;;;;17.65;9.65;;;29.80;96.50;;;;;;1782909;79;21254;-84
2022/05/28 13:13:53;;;;;;;21.73;10.70;;;29.90;96.40;;;;;;1753653;80;21203;-84
2022/05/28 13:16:31;;;;;;;14.85;9.43;;;29.70;96.30;;;;;;1813718;77;21132;-85